createdAt,value
2023-03-14T00:03:58.173Z,93276.00
2023-03-14T00:07:58.271Z,93257.00
2023-03-14T00:11:58.472Z,93245.00
2023-03-14T00:15:58.616Z,93247.00
2023-03-14T00:19:58.739Z,93262.00
2023-03-14T00:23:58.925Z,93247.00
2023-03-14T00:27:59.119Z,93241.00
2023-03-14T00:31:59.097Z,93245.00
2023-03-14T00:35:59.248Z,93211.00
2023-03-14T00:39:59.331Z,93209.00
2023-03-14T00:43:59.509Z,93206.00
2023-03-14T00:47:59.626Z,93186.00
2023-03-14T00:51:59.696Z,93188.00
2023-03-14T00:55:59.795Z,93184.00
2023-03-14T00:59:59.951Z,93190.00
2023-03-14T01:04:00.048Z,93188.00
2023-03-14T01:08:00.204Z,93207.00
2023-03-14T01:12:00.342Z,93186.00
2023-03-14T01:16:00.557Z,93178.00
2023-03-14T01:20:00.574Z,93188.00
2023-03-14T01:24:00.655Z,93174.00
2023-03-14T01:28:00.819Z,93188.00
2023-03-14T01:32:00.952Z,93164.00
2023-03-14T01:36:01.078Z,93153.00
2023-03-14T01:40:01.133Z,93153.00
2023-03-14T01:44:01.263Z,93155.00
2023-03-14T01:48:01.380Z,93141.00
2023-03-14T01:52:01.530Z,93147.00
2023-03-14T01:56:01.590Z,93151.00
2023-03-14T02:00:01.797Z,93157.00
2023-03-14T02:04:01.861Z,93157.00
2023-03-14T02:08:01.966Z,93155.00
2023-03-14T02:12:02.092Z,93153.00
2023-03-14T02:16:02.246Z,93168.00
2023-03-14T02:20:02.373Z,93170.00
2023-03-14T02:24:02.522Z,93164.00
2023-03-14T02:28:02.620Z,93159.00
2023-03-14T02:32:02.776Z,93164.00
2023-03-14T02:36:02.900Z,93188.00
2023-03-14T02:40:03.026Z,93182.00
2023-03-14T02:44:03.033Z,93184.00
2023-03-14T02:48:03.140Z,93178.00
2023-03-14T02:52:03.272Z,93170.00
2023-03-14T02:56:03.422Z,93180.00
2023-03-14T03:00:03.509Z,93186.00
2023-03-14T03:04:03.655Z,93200.00
2023-03-14T03:08:03.763Z,93207.00
2023-03-14T03:12:03.861Z,93213.00
2023-03-14T03:16:03.971Z,93227.00
2023-03-14T03:20:04.053Z,93223.00
2023-03-14T03:24:04.165Z,93225.00
2023-03-14T03:28:04.197Z,93233.00
2023-03-14T03:32:04.383Z,93239.00
2023-03-14T03:36:04.571Z,93229.00
2023-03-14T03:40:04.574Z,93259.00
2023-03-14T03:44:04.700Z,93257.00
2023-03-14T03:48:04.810Z,93272.00
2023-03-14T03:52:04.915Z,93270.00
2023-03-14T03:56:05.035Z,93266.00
2023-03-14T04:00:05.152Z,93261.00
2023-03-14T04:04:05.294Z,93268.00
2023-03-14T04:08:05.462Z,93261.00
2023-03-14T04:12:05.577Z,93253.00
2023-03-14T04:16:05.856Z,93262.00
2023-03-14T04:20:05.835Z,93268.00
2023-03-14T04:24:05.942Z,93270.00
2023-03-14T04:28:06.097Z,93276.00
2023-03-14T04:32:06.174Z,93290.00
2023-03-14T04:36:06.348Z,93296.00
2023-03-14T04:40:06.412Z,93290.00
2023-03-14T04:44:06.603Z,93284.00
2023-03-14T04:48:06.639Z,93288.00
2023-03-14T04:52:06.758Z,93286.00
2023-03-14T04:56:06.890Z,93282.00
2023-03-14T05:00:07.001Z,93280.00
2023-03-14T05:04:07.185Z,93272.00
2023-03-14T05:08:07.246Z,93261.00
2023-03-14T05:12:07.363Z,93259.00
2023-03-14T05:16:07.494Z,93237.00
2023-03-14T05:20:07.592Z,93221.00
2023-03-14T05:24:07.675Z,93217.00
2023-03-14T05:28:07.787Z,93209.00
2023-03-14T05:32:07.939Z,93221.00
2023-03-14T05:36:08.095Z,93221.00
2023-03-14T05:40:08.182Z,93209.00
2023-03-14T05:44:08.302Z,93215.00
2023-03-14T05:48:08.449Z,93209.00
2023-03-14T05:52:08.554Z,93207.00
2023-03-14T05:56:08.662Z,93190.00
2023-03-14T06:00:08.789Z,93174.00
2023-03-14T06:04:08.886Z,93166.00
2023-03-14T06:08:09.007Z,93155.00
2023-03-14T06:12:09.108Z,93162.00
2023-03-14T06:16:09.293Z,93155.00
2023-03-14T06:20:09.386Z,93160.00
2023-03-14T06:24:09.519Z,93157.00
2023-03-14T06:28:09.660Z,93160.00
2023-03-14T06:32:09.822Z,93162.00
2023-03-14T06:36:10.002Z,93160.00
2023-03-14T06:40:10.082Z,93166.00
2023-03-14T06:44:10.193Z,93176.00
2023-03-14T06:48:10.273Z,93188.00
2023-03-14T06:52:10.573Z,93194.00
2023-03-14T06:56:10.578Z,93200.00
2023-03-14T07:00:10.665Z,93209.00
2023-03-14T07:04:10.856Z,93211.00
2023-03-14T07:08:10.920Z,93213.00
2023-03-14T07:12:11.008Z,93213.00
2023-03-14T07:16:11.144Z,93207.00
2023-03-14T07:20:11.262Z,93200.00
2023-03-14T07:24:11.374Z,93196.00
2023-03-14T07:28:11.520Z,93209.00
2023-03-14T07:32:11.661Z,93206.00
2023-03-14T07:36:12.170Z,93207.00
2023-03-14T07:40:12.103Z,93209.00
2023-03-14T07:44:12.093Z,93211.00
2023-03-14T07:48:12.245Z,93213.00
2023-03-14T07:52:12.451Z,93215.00
2023-03-14T07:56:12.549Z,93209.00
2023-03-14T08:00:14.840Z,93211.00
2023-03-14T08:04:12.783Z,93202.00
2023-03-14T08:08:12.664Z,93194.00
2023-03-14T08:12:12.601Z,93196.00
2023-03-14T08:16:12.592Z,93198.00
2023-03-14T08:20:12.525Z,93204.00
2023-03-14T08:24:12.517Z,93202.00
2023-03-14T08:28:12.480Z,93202.00
2023-03-14T08:32:12.622Z,93204.00
2023-03-14T08:36:12.412Z,93206.00
2023-03-14T08:40:12.638Z,93200.00
2023-03-14T08:44:12.564Z,93204.00
2023-03-14T08:48:12.288Z,93211.00
2023-03-14T08:52:12.267Z,93211.00
2023-03-14T08:56:12.195Z,93211.00
2023-03-14T09:00:12.273Z,93217.00
2023-03-14T09:04:12.453Z,93215.00
2023-03-14T09:08:12.545Z,93225.00
2023-03-14T09:12:13.084Z,93227.00
2023-03-14T09:16:12.787Z,93235.00
2023-03-14T09:20:13.090Z,93239.00
2023-03-14T09:24:13.043Z,93241.00
2023-03-14T09:28:13.179Z,93245.00
2023-03-14T09:32:18.720Z,93251.00
2023-03-14T09:36:14.225Z,93247.00
2023-03-14T09:40:13.232Z,93229.00
2023-03-14T09:44:14.095Z,93245.00
2023-03-14T09:48:13.145Z,93259.00
2023-03-14T09:52:13.140Z,93255.00
2023-03-14T09:56:13.189Z,93264.00
2023-03-14T10:00:13.289Z,93264.00
2023-03-14T10:04:13.446Z,93276.00
2023-03-14T10:08:13.489Z,93280.00
2023-03-14T10:12:13.637Z,93282.00
2023-03-14T10:16:13.849Z,93284.00
2023-03-14T10:20:13.865Z,93284.00
2023-03-14T10:24:13.944Z,93272.00
2023-03-14T10:28:14.083Z,93270.00
2023-03-14T10:32:14.585Z,93264.00
2023-03-14T10:36:15.684Z,93264.00
2023-03-14T10:40:14.468Z,93268.00
2023-03-14T10:44:14.487Z,93255.00
2023-03-14T10:48:14.536Z,93253.00
2023-03-14T10:52:14.677Z,93259.00
2023-03-14T10:56:14.719Z,93259.00
2023-03-14T11:00:14.754Z,93253.00
2023-03-14T11:04:14.849Z,93251.00
2023-03-14T11:08:15.016Z,93245.00
2023-03-14T11:12:15.007Z,93239.00
2023-03-14T11:16:15.171Z,93235.00
2023-03-14T11:20:15.313Z,93233.00
2023-03-14T11:24:15.421Z,93229.00
2023-03-14T11:28:15.562Z,93223.00
2023-03-14T11:32:15.681Z,93206.00
2023-03-14T11:36:15.737Z,93200.00
2023-03-14T11:40:15.836Z,93198.00
2023-03-14T11:44:16.036Z,93194.00
2023-03-14T11:48:16.152Z,93186.00
2023-03-14T11:52:16.884Z,93182.00
2023-03-14T11:56:16.390Z,93176.00
2023-03-14T12:00:16.476Z,93172.00
2023-03-14T12:04:16.673Z,93164.00
2023-03-14T12:08:16.646Z,93159.00
2023-03-14T12:12:16.770Z,93159.00
2023-03-14T12:16:17.167Z,93160.00
2023-03-14T12:20:17.032Z,93168.00
2023-03-14T12:24:17.357Z,93166.00
2023-03-14T12:28:17.289Z,93166.00
2023-03-14T12:32:17.356Z,93172.00
2023-03-14T12:36:17.506Z,93172.00
2023-03-14T12:40:17.596Z,93170.00
2023-03-14T12:44:17.753Z,93170.00
2023-03-14T12:48:17.843Z,93168.00
2023-03-14T12:52:17.948Z,93166.00
2023-03-14T12:56:18.028Z,93157.00
2023-03-14T13:00:18.114Z,93151.00
2023-03-14T13:04:23.773Z,93153.00
2023-03-14T13:08:19.220Z,93153.00
2023-03-14T13:12:18.187Z,93151.00
2023-03-14T13:16:18.339Z,93153.00
2023-03-14T13:20:18.652Z,93159.00
2023-03-14T13:24:18.537Z,93151.00
2023-03-14T13:28:18.679Z,93164.00
2023-03-14T13:32:18.924Z,93164.00
2023-03-14T13:36:18.842Z,93166.00
2023-03-14T13:40:19.016Z,93166.00
2023-03-14T13:44:19.082Z,93176.00
2023-03-14T13:48:19.175Z,93180.00
2023-03-14T13:52:19.289Z,93192.00
2023-03-14T13:56:19.508Z,93209.00
2023-03-14T14:00:19.917Z,93223.00
2023-03-14T14:04:19.773Z,93227.00
2023-03-14T14:08:19.835Z,93233.00
2023-03-14T14:12:19.940Z,93223.00
2023-03-14T14:16:20.207Z,93223.00
2023-03-14T14:20:20.169Z,93223.00
2023-03-14T14:24:20.292Z,93235.00
2023-03-14T14:28:20.455Z,93237.00
2023-03-14T14:32:20.584Z,93249.00
2023-03-14T14:36:20.737Z,93257.00
2023-03-14T14:40:20.737Z,93264.00
2023-03-14T14:44:20.800Z,93274.00
2023-03-14T14:48:20.852Z,93274.00
2023-03-14T14:52:21.001Z,93284.00
2023-03-14T14:56:21.181Z,93304.00
2023-03-14T15:00:21.247Z,93310.00
2023-03-14T15:04:21.342Z,93321.00
2023-03-14T15:08:21.430Z,93339.00
2023-03-14T15:12:21.600Z,93333.00
2023-03-14T15:16:21.854Z,93319.00
2023-03-14T15:20:21.850Z,93325.00
2023-03-14T15:24:21.938Z,93331.00
2023-03-14T15:28:22.046Z,93323.00
2023-03-14T15:32:22.217Z,93321.00
2023-03-14T15:36:22.322Z,93329.00
2023-03-14T15:40:22.429Z,93333.00
2023-03-14T15:44:22.518Z,93347.00
2023-03-14T15:48:22.642Z,93353.00
2023-03-14T15:52:22.662Z,93366.00
2023-03-14T15:56:22.793Z,93370.00
2023-03-14T16:00:22.896Z,93368.00
2023-03-14T16:04:23.034Z,93380.00
2023-03-14T16:08:23.141Z,93390.00
2023-03-14T16:12:23.297Z,93388.00
2023-03-14T16:16:23.404Z,93392.00
2023-03-14T16:20:23.469Z,93400.00
2023-03-14T16:24:23.567Z,93398.00
2023-03-14T16:28:23.669Z,93417.00
2023-03-14T16:32:23.983Z,93415.00
2023-03-14T16:36:24.101Z,93419.00
2023-03-14T16:40:24.074Z,93433.00
2023-03-14T16:44:24.171Z,93448.00
2023-03-14T16:48:24.322Z,93452.00
2023-03-14T16:52:24.429Z,93464.00
2023-03-14T16:56:24.866Z,93470.00
2023-03-14T17:00:24.676Z,93476.00
2023-03-14T17:04:24.931Z,93486.00
2023-03-14T17:08:24.972Z,93507.00
2023-03-14T17:12:25.114Z,93519.00
2023-03-14T17:16:25.290Z,93523.00
2023-03-14T17:20:25.321Z,93549.00
2023-03-14T17:24:25.445Z,93543.00
2023-03-14T17:28:25.617Z,93543.00
2023-03-14T17:32:25.819Z,93566.00
2023-03-14T17:36:25.910Z,93568.00
2023-03-14T17:40:26.022Z,93592.00
2023-03-14T17:44:26.195Z,93615.00
2023-03-14T17:48:26.297Z,93647.00
2023-03-14T17:52:26.393Z,93650.00
2023-03-14T17:56:26.460Z,93694.00
2023-03-14T18:00:26.619Z,93682.00
2023-03-14T18:04:26.794Z,93690.00
2023-03-14T18:08:26.886Z,93686.00
2023-03-14T18:12:26.997Z,93705.00
2023-03-14T18:16:27.167Z,93713.00
2023-03-14T18:20:27.278Z,93719.00
2023-03-14T18:24:28.909Z,93735.00
2023-03-14T18:28:27.507Z,93744.00
2023-03-14T18:32:27.665Z,93748.00
2023-03-14T18:36:27.734Z,93752.00
2023-03-14T18:40:27.903Z,93760.00
2023-03-14T18:44:28.030Z,93758.00
2023-03-14T18:48:28.181Z,93778.00
2023-03-14T18:52:28.293Z,93766.00
2023-03-14T18:56:28.447Z,93776.00
2023-03-14T19:00:28.575Z,93772.00
2023-03-14T19:04:28.660Z,93776.00
2023-03-14T19:08:28.886Z,93790.00
2023-03-14T19:12:28.905Z,93790.00
2023-03-14T19:16:29.075Z,93796.00
2023-03-14T19:20:29.095Z,93799.00
2023-03-14T19:24:29.219Z,93803.00
2023-03-14T19:28:29.281Z,93794.00
2023-03-14T19:32:29.534Z,93798.00
2023-03-14T19:36:29.644Z,93798.00
2023-03-14T19:40:29.774Z,93803.00
2023-03-14T19:44:29.860Z,93815.00
2023-03-14T19:48:30.569Z,93817.00
2023-03-14T19:52:30.177Z,93831.00
2023-03-14T19:56:30.237Z,93841.00
2023-03-14T20:00:30.385Z,93837.00
2023-03-14T20:04:30.511Z,93825.00
2023-03-14T20:08:30.642Z,93837.00
2023-03-14T20:12:30.800Z,93848.00
2023-03-14T20:16:30.999Z,93862.00
2023-03-14T20:20:31.024Z,93872.00
2023-03-14T20:24:31.170Z,93876.00
2023-03-14T20:28:31.330Z,93880.00
2023-03-14T20:32:31.555Z,93882.00
2023-03-14T20:36:31.475Z,93890.00
2023-03-14T20:40:31.582Z,93886.00
2023-03-14T20:44:31.672Z,93888.00
2023-03-14T20:48:31.750Z,93890.00
2023-03-14T20:52:31.913Z,93893.00
2023-03-14T20:56:31.985Z,93899.00
2023-03-14T21:00:32.060Z,93897.00
2023-03-14T21:04:32.198Z,93907.00
2023-03-14T21:08:32.332Z,93907.00
2023-03-14T21:12:32.418Z,93911.00
2023-03-14T21:16:32.582Z,93913.00
2023-03-14T21:20:32.613Z,93915.00
2023-03-14T21:24:32.691Z,93915.00
2023-03-14T21:28:32.828Z,93903.00
2023-03-14T21:32:32.995Z,93911.00
2023-03-14T21:36:33.025Z,93919.00
2023-03-14T21:40:33.141Z,93917.00
2023-03-14T21:44:33.278Z,93923.00
2023-03-14T21:48:33.340Z,93925.00
2023-03-14T21:52:33.493Z,93929.00
2023-03-14T21:56:33.558Z,93937.00
2023-03-14T22:00:33.670Z,93944.00
2023-03-14T22:04:33.857Z,93956.00
2023-03-14T22:08:34.004Z,93964.00
2023-03-14T22:12:34.154Z,93968.00
2023-03-14T22:16:34.305Z,93976.00
2023-03-14T22:20:34.351Z,93976.00
2023-03-14T22:24:34.510Z,93986.00
2023-03-14T22:28:34.610Z,93990.00
2023-03-14T22:32:34.797Z,93984.00
2023-03-14T22:36:34.809Z,93982.00
2023-03-14T22:40:34.902Z,93986.00
2023-03-14T22:44:35.022Z,93992.00
2023-03-14T22:48:35.178Z,93986.00
2023-03-14T22:52:35.351Z,93995.00
2023-03-14T22:56:35.459Z,93993.00
2023-03-14T23:00:35.627Z,93993.00
2023-03-14T23:04:35.752Z,93999.00
2023-03-14T23:08:35.918Z,94007.00
2023-03-14T23:12:35.901Z,94011.00
2023-03-14T23:16:40.701Z,94017.00
2023-03-14T23:20:37.011Z,94027.00
2023-03-14T23:24:35.981Z,94027.00
2023-03-14T23:28:35.948Z,94025.00
2023-03-14T23:32:36.119Z,94021.00
2023-03-14T23:36:36.301Z,94023.00
2023-03-14T23:40:36.305Z,94021.00
2023-03-14T23:44:36.419Z,94027.00
2023-03-14T23:48:36.588Z,94033.00
2023-03-14T23:52:36.722Z,94040.00
2023-03-14T23:56:36.856Z,94040.00
